createdAt,value
2023-03-26T00:01:39.662Z,98397.53
2023-03-26T00:04:08.327Z,98399.75
2023-03-26T00:06:39.940Z,98391.84
2023-03-26T00:09:13.500Z,98397.25
2023-03-26T00:11:42.067Z,98402.22
2023-03-26T00:14:14.112Z,98401.53
2023-03-26T00:16:42.743Z,98396.19
2023-03-26T00:19:12.840Z,98402.69
2023-03-26T00:21:41.460Z,98406.84
2023-03-26T00:24:16.342Z,98394.91
2023-03-26T00:26:45.045Z,98384.59
2023-03-26T00:29:15.558Z,98390.38
2023-03-26T00:31:46.696Z,98384.03
2023-03-26T00:34:18.645Z,98389.91
2023-03-26T00:36:46.981Z,98377.16
2023-03-26T00:39:17.782Z,98380.88
2023-03-26T00:41:45.057Z,98380.28
2023-03-26T00:44:12.645Z,98370.69
2023-03-26T00:46:40.113Z,98374.28
2023-03-26T00:49:11.080Z,98380.69
2023-03-26T00:51:39.342Z,98379.63
2023-03-26T00:54:08.672Z,98374.19
2023-03-26T00:56:36.115Z,98372.41
2023-03-26T00:59:04.524Z,98365.94
2023-03-26T01:01:32.543Z,98358.44
2023-03-26T01:04:31.604Z,98359.47
2023-03-26T01:07:16.943Z,98350.09
2023-03-26T01:09:50.386Z,98363.19
2023-03-26T01:12:25.637Z,98362.50
2023-03-26T01:15:01.134Z,98359.28
2023-03-26T01:17:34.213Z,98361.47
2023-03-26T01:20:26.962Z,98369.94
2023-03-26T01:23:05.503Z,98373.97
2023-03-26T01:25:44.565Z,98381.41
2023-03-26T01:28:12.754Z,98391.41
2023-03-26T01:30:58.721Z,98405.22
2023-03-26T01:33:46.587Z,98403.25
2023-03-26T01:36:36.794Z,98399.00
2023-03-26T01:40:07.465Z,98399.47
2023-03-26T01:42:51.459Z,98382.88
2023-03-26T01:45:26.438Z,98371.63
2023-03-26T01:47:55.520Z,98363.16
2023-03-26T01:50:22.781Z,98349.38
2023-03-26T01:52:50.570Z,98350.50
2023-03-26T01:55:19.052Z,98352.47
2023-03-26T01:58:03.892Z,98347.47
2023-03-26T02:00:44.216Z,98343.75
2023-03-26T02:03:31.611Z,98348.84
2023-03-26T02:06:37.587Z,98350.72
2023-03-26T02:09:11.716Z,98348.84
2023-03-26T02:11:41.166Z,98348.03
2023-03-26T02:14:10.119Z,98352.81
2023-03-26T02:16:37.347Z,98342.16
2023-03-26T02:19:05.498Z,98349.06
2023-03-26T02:21:34.309Z,98333.09
2023-03-26T02:24:04.949Z,98332.78
2023-03-26T02:26:37.885Z,98338.09
2023-03-26T02:29:14.241Z,98345.28
2023-03-26T02:31:44.417Z,98336.47
2023-03-26T02:34:12.168Z,98333.00
2023-03-26T02:36:43.340Z,98337.28
2023-03-26T02:39:14.313Z,98340.97
2023-03-26T02:41:44.917Z,98344.72
2023-03-26T02:44:13.353Z,98339.84
2023-03-26T02:47:12.556Z,98339.84
2023-03-26T02:49:58.488Z,98336.16
2023-03-26T02:52:37.075Z,98343.09
2023-03-26T02:55:05.019Z,98344.38
2023-03-26T02:57:33.200Z,98346.25
2023-03-26T03:00:17.450Z,98332.91
2023-03-26T03:02:48.680Z,98331.28
2023-03-26T03:05:34.073Z,98331.28
2023-03-26T03:08:39.998Z,98333.59
2023-03-26T03:11:31.357Z,98327.72
2023-03-26T03:13:58.813Z,98331.19
2023-03-26T03:16:28.768Z,98326.91
2023-03-26T03:18:58.583Z,98328.53
2023-03-26T03:21:35.806Z,98334.88
2023-03-26T03:24:03.344Z,98329.00
2023-03-26T03:26:36.626Z,98319.97
2023-03-26T03:29:32.964Z,98319.97
2023-03-26T03:32:22.576Z,98319.97
2023-03-26T03:34:52.192Z,98326.13
2023-03-26T03:37:20.640Z,98321.25
2023-03-26T03:39:52.452Z,98334.31
2023-03-26T03:42:22.755Z,98335.38
2023-03-26T03:44:53.020Z,98333.50
2023-03-26T03:47:53.427Z,98338.06
2023-03-26T03:50:33.715Z,98331.09
2023-03-26T03:53:29.436Z,98335.38
2023-03-26T03:56:02.746Z,98324.94
2023-03-26T03:58:51.598Z,98337.00
2023-03-26T04:01:30.794Z,98334.56
2023-03-26T04:04:07.985Z,98333.50
2023-03-26T04:06:58.264Z,98332.72
2023-03-26T04:09:30.975Z,98329.00
2023-03-26T04:12:03.194Z,98330.63
2023-03-26T04:14:39.129Z,98333.50
2023-03-26T04:17:15.772Z,98329.00
2023-03-26T04:19:45.638Z,98329.00
2023-03-26T04:22:14.613Z,98323.66
2023-03-26T04:24:54.430Z,98320.44
2023-03-26T04:27:35.468Z,98320.44
2023-03-26T04:30:20.861Z,98320.44
2023-03-26T04:33:06.952Z,98324.13
2023-03-26T04:35:41.870Z,98315.56
2023-03-26T04:38:13.087Z,98311.88
2023-03-26T04:40:50.552Z,98311.88
2023-03-26T04:43:35.588Z,98305.72
2023-03-26T04:46:06.053Z,98296.13
2023-03-26T04:48:39.821Z,98295.53
2023-03-26T04:51:18.510Z,98299.28
2023-03-26T04:53:59.688Z,98310.75
2023-03-26T04:57:01.169Z,98310.75
2023-03-26T04:59:35.354Z,98309.13
2023-03-26T05:02:08.211Z,98310.97
2023-03-26T05:04:46.509Z,98312.81
2023-03-26T05:07:21.437Z,98321.88
2023-03-26T05:09:52.084Z,98314.91
2023-03-26T05:12:24.229Z,98316.53
2023-03-26T05:15:05.921Z,98323.47
2023-03-26T05:17:46.469Z,98325.09
2023-03-26T05:20:27.318Z,98313.63
2023-03-26T05:22:55.267Z,98316.84
2023-03-26T05:25:26.997Z,98312.34
2023-03-26T05:27:55.473Z,98307.03
2023-03-26T05:30:27.096Z,98313.16
2023-03-26T05:32:59.904Z,98311.88
2023-03-26T05:35:32.030Z,98318.03
2023-03-26T05:37:59.605Z,98319.63
2023-03-26T05:40:27.058Z,98316.50
2023-03-26T05:42:57.939Z,98312.53
2023-03-26T05:45:48.358Z,98313.34
2023-03-26T05:48:24.906Z,98304.66
2023-03-26T05:50:56.186Z,98307.41
2023-03-26T05:53:27.525Z,98310.63
2023-03-26T05:56:29.772Z,98310.63
2023-03-26T05:59:16.128Z,98308.06
2023-03-26T06:02:03.647Z,98301.09
2023-03-26T06:04:51.712Z,98310.47
2023-03-26T06:07:50.279Z,98316.63
2023-03-26T06:10:20.311Z,98307.13
2023-03-26T06:12:47.315Z,98310.66
2023-03-26T06:15:15.785Z,98316.34
2023-03-26T06:18:05.985Z,98320.03
2023-03-26T06:20:48.931Z,98326.19
2023-03-26T06:23:25.367Z,98315.28
2023-03-26T06:26:06.538Z,98308.91
2023-03-26T06:28:52.695Z,98321.19
2023-03-26T06:31:34.775Z,98317.81
2023-03-26T06:34:18.236Z,98319.94
2023-03-26T06:36:46.140Z,98326.94
2023-03-26T06:39:13.140Z,98324.38
2023-03-26T06:41:49.514Z,98323.06
2023-03-26T06:44:46.177Z,98326.09
2023-03-26T06:47:34.064Z,98330.44
2023-03-26T06:50:33.453Z,98326.25
2023-03-26T06:53:13.499Z,98334.00
2023-03-26T06:55:58.238Z,98329.97
2023-03-26T06:58:44.322Z,98336.44
2023-03-26T07:01:29.888Z,98332.78
2023-03-26T07:04:16.277Z,98336.09
2023-03-26T07:07:02.390Z,98335.63
2023-03-26T07:09:49.120Z,98336.75
2023-03-26T07:12:34.839Z,98333.66
2023-03-26T07:15:21.322Z,98330.03
2023-03-26T07:17:48.534Z,98336.50
2023-03-26T07:20:22.729Z,98332.19
2023-03-26T07:22:51.045Z,98330.91
2023-03-26T07:25:44.800Z,98330.41
2023-03-26T07:29:03.968Z,98316.13
2023-03-26T07:32:27.163Z,98317.09
2023-03-26T07:35:45.161Z,98306.94
2023-03-26T07:39:42.630Z,98301.78
2023-03-26T07:43:21.456Z,98303.66
2023-03-26T07:46:14.329Z,98297.91
2023-03-26T07:49:02.127Z,98292.56
2023-03-26T07:51:39.518Z,98290.81
2023-03-26T07:54:23.901Z,98289.03
2023-03-26T07:57:46.778Z,98292.19
2023-03-26T08:00:57.372Z,98285.22
2023-03-26T08:03:38.490Z,98290.53
2023-03-26T08:06:37.680Z,98292.88
2023-03-26T08:09:49.057Z,98280.28
2023-03-26T08:12:48.397Z,98284.72
2023-03-26T08:15:45.229Z,98284.25
2023-03-26T08:18:44.715Z,98282.19
2023-03-26T08:21:20.808Z,98269.31
2023-03-26T08:24:18.036Z,98273.88
2023-03-26T08:27:04.447Z,98283.31
2023-03-26T08:30:01.830Z,98284.91
2023-03-26T08:32:30.632Z,98282.19
2023-03-26T08:35:00.301Z,98289.69
2023-03-26T08:37:29.202Z,98290.16
2023-03-26T08:39:56.640Z,98286.38
2023-03-26T08:43:04.337Z,98288.16
2023-03-26T08:46:12.684Z,98279.38
2023-03-26T08:49:21.267Z,98288.44
2023-03-26T08:52:28.438Z,98284.72
2023-03-26T08:55:27.751Z,98272.97
2023-03-26T08:58:38.367Z,98287.72
2023-03-26T09:01:46.631Z,98280.00
2023-03-26T09:05:07.200Z,98282.09
2023-03-26T09:08:00.873Z,98271.16
2023-03-26T09:11:15.884Z,98264.94
2023-03-26T09:14:25.512Z,98270.41
2023-03-26T09:17:17.819Z,98273.13
2023-03-26T09:20:35.830Z,98270.03
2023-03-26T09:23:39.114Z,98265.22
2023-03-26T09:26:25.363Z,98263.88
2023-03-26T09:29:42.403Z,98259.84
2023-03-26T09:33:02.004Z,98253.38
2023-03-26T09:35:52.104Z,98266.56
2023-03-26T09:39:08.852Z,98260.38
2023-03-26T09:42:04.925Z,98261.72
2023-03-26T09:45:39.537Z,98264.94
2023-03-26T09:48:25.519Z,98260.13
2023-03-26T09:51:13.491Z,98252.88
2023-03-26T09:54:46.510Z,98253.16
2023-03-26T09:57:43.458Z,98243.75
2023-03-26T10:00:35.250Z,98249.13
2023-03-26T10:03:41.282Z,98246.97
2023-03-26T10:06:28.306Z,98231.91
2023-03-26T10:09:17.670Z,98233.75
2023-03-26T10:12:25.107Z,98232.16
2023-03-26T10:15:31.428Z,98227.59
2023-03-26T10:18:27.444Z,98228.66
2023-03-26T10:21:45.922Z,98216.03
2023-03-26T10:24:38.944Z,98223.31
2023-03-26T10:27:42.464Z,98219.00
2023-03-26T10:30:37.521Z,98211.25
2023-03-26T10:33:30.974Z,98213.09
2023-03-26T10:36:15.813Z,98209.59
2023-03-26T10:39:36.360Z,98211.44
2023-03-26T10:42:38.539Z,98205.97
2023-03-26T10:45:26.005Z,98195.69
2023-03-26T10:48:08.250Z,98195.34
2023-03-26T10:51:00.374Z,98201.47
2023-03-26T10:54:02.542Z,98194.00
2023-03-26T10:56:41.387Z,98200.47
2023-03-26T10:59:16.571Z,98198.63
2023-03-26T11:02:03.380Z,98198.38
2023-03-26T11:05:00.875Z,98193.00
2023-03-26T11:07:43.465Z,98188.13
2023-03-26T11:10:42.347Z,98191.91
2023-03-26T11:13:50.940Z,98187.06
2023-03-26T11:16:36.625Z,98183.00
2023-03-26T11:19:33.693Z,98182.16
2023-03-26T11:22:42.209Z,98177.31
2023-03-26T11:25:40.721Z,98182.69
2023-03-26T11:28:32.854Z,98168.09
2023-03-26T11:31:11.817Z,98166.91
2023-03-26T11:33:48.466Z,98172.53
2023-03-26T11:36:23.820Z,98173.91
2023-03-26T11:38:55.748Z,98172.13
2023-03-26T11:41:33.410Z,98173.72
2023-03-26T11:44:27.746Z,98167.28
2023-03-26T11:47:10.382Z,98159.72
2023-03-26T11:49:40.800Z,98156.09
2023-03-26T11:52:12.226Z,98144.63
2023-03-26T11:54:39.407Z,98145.34
2023-03-26T11:57:16.050Z,98144.28
2023-03-26T11:59:57.187Z,98142.75
2023-03-26T12:02:38.341Z,98143.38
2023-03-26T12:05:15.756Z,98132.28
2023-03-26T12:08:02.410Z,98142.00
2023-03-26T12:10:39.143Z,98136.50
2023-03-26T12:13:36.536Z,98135.59
2023-03-26T12:16:17.511Z,98130.31
2023-03-26T12:18:57.928Z,98135.56
2023-03-26T12:21:25.177Z,98124.03
2023-03-26T12:24:04.834Z,98117.88
2023-03-26T12:26:43.196Z,98119.91
2023-03-26T12:29:14.895Z,98132.19
2023-03-26T12:31:49.291Z,98120.22
2023-03-26T12:34:22.945Z,98122.91
2023-03-26T12:36:55.414Z,98119.03
2023-03-26T12:40:08.610Z,98119.00
2023-03-26T12:44:48.305Z,98110.84
2023-03-26T12:47:55.499Z,98109.72
2023-03-26T12:48:46.247Z,98113.53
2023-03-26T12:51:47.556Z,98104.97
2023-03-26T12:54:59.214Z,98099.84
2023-03-26T12:58:13.890Z,98085.13
2023-03-26T13:01:22.603Z,98077.09
2023-03-26T13:04:21.852Z,98076.81
2023-03-26T13:07:09.847Z,98071.53
2023-03-26T13:10:32.902Z,98071.41
2023-03-26T13:13:53.382Z,98063.56
2023-03-26T13:16:56.915Z,98061.44
2023-03-26T13:19:48.366Z,98060.13
2023-03-26T13:23:17.524Z,98057.84
2023-03-26T13:26:26.685Z,98060.88
2023-03-26T13:29:38.108Z,98057.66
2023-03-26T13:32:52.216Z,98044.25
2023-03-26T13:35:34.552Z,98046.94
2023-03-26T13:38:18.317Z,98037.75
2023-03-26T13:41:07.073Z,98041.38
2023-03-26T13:44:18.281Z,98040.25
2023-03-26T13:47:04.618Z,98031.06
2023-03-26T13:49:46.748Z,98041.28
2023-03-26T13:52:48.510Z,98035.06
2023-03-26T13:55:43.995Z,98032.69
2023-03-26T13:58:22.126Z,98032.69
2023-03-26T14:01:19.415Z,98033.25
2023-03-26T14:04:23.419Z,98024.66
2023-03-26T14:07:10.460Z,98023.13
2023-03-26T14:10:08.725Z,98022.59
2023-03-26T14:13:02.838Z,98024.78
2023-03-26T14:15:51.853Z,98020.53
2023-03-26T14:18:39.960Z,98027.06
2023-03-26T14:21:45.574Z,98021.28
2023-03-26T14:24:47.235Z,98022.44
2023-03-26T14:27:48.986Z,98023.63
2023-03-26T14:30:54.522Z,98024.75
2023-03-26T14:34:04.880Z,98022.59
2023-03-26T14:37:06.474Z,98025.34
2023-03-26T14:39:58.670Z,98025.41
2023-03-26T14:43:09.841Z,98022.28
2023-03-26T14:46:02.494Z,98021.00
2023-03-26T14:49:02.650Z,98024.00
2023-03-26T14:52:13.642Z,98017.84
2023-03-26T14:54:46.655Z,98019.50
2023-03-26T14:58:02.102Z,97999.34
2023-03-26T15:01:23.124Z,98003.94
2023-03-26T15:04:39.853Z,98004.25
2023-03-26T15:07:51.450Z,97999.94
2023-03-26T15:10:55.535Z,98004.25
2023-03-26T15:14:03.677Z,98002.66
2023-03-26T15:17:18.686Z,98001.06
2023-03-26T15:20:32.017Z,97999.22
2023-03-26T15:23:40.745Z,97993.59
2023-03-26T15:26:46.583Z,98004.91
2023-03-26T15:29:52.394Z,97985.56
2023-03-26T15:32:49.666Z,97991.50
2023-03-26T15:35:51.754Z,97993.38
2023-03-26T15:39:27.666Z,97985.38
2023-03-26T15:42:11.674Z,97989.69
2023-03-26T15:44:54.527Z,97987.31
2023-03-26T15:48:15.115Z,97986.50
2023-03-26T15:51:04.386Z,97982.47
2023-03-26T15:53:49.382Z,97982.47
2023-03-26T15:56:53.219Z,97980.31
2023-03-26T15:59:52.716Z,97969.56
2023-03-26T16:02:41.848Z,97967.16
2023-03-26T16:05:44.780Z,97966.34
2023-03-26T16:08:40.663Z,97954.81
2023-03-26T16:11:13.196Z,97955.59
2023-03-26T16:13:49.991Z,97957.22
2023-03-26T16:16:45.224Z,97958.59
2023-03-26T16:19:22.648Z,97954.56
2023-03-26T16:22:01.010Z,97955.66
2023-03-26T16:24:36.306Z,97959.94
2023-03-26T16:27:13.114Z,97959.13
2023-03-26T16:30:09.567Z,97955.13
2023-03-26T16:32:46.997Z,97955.69
2023-03-26T16:35:14.138Z,97948.19
2023-03-26T16:37:50.709Z,97958.41
2023-03-26T16:40:17.879Z,97953.59
2023-03-26T16:43:24.571Z,97959.53
2023-03-26T16:46:36.661Z,97963.84
2023-03-26T16:49:27.625Z,97963.63
2023-03-26T16:52:23.513Z,97954.78
2023-03-26T16:55:06.900Z,97957.50
2023-03-26T16:58:11.923Z,97958.03
2023-03-26T17:01:06.259Z,97955.38
2023-03-26T17:03:52.214Z,97950.03
2023-03-26T17:06:47.842Z,97951.41
2023-03-26T17:09:29.048Z,97949.56
2023-03-26T17:12:23.897Z,97946.91
2023-03-26T17:15:26.385Z,97948.28
2023-03-26T17:18:36.380Z,97945.91
2023-03-26T17:21:46.007Z,97942.72
2023-03-26T17:24:58.053Z,97945.72
2023-03-26T17:27:51.570Z,97954.03
2023-03-26T17:31:04.827Z,97947.09
2023-03-26T17:33:38.703Z,97951.34
2023-03-26T17:36:12.906Z,97958.63
2023-03-26T17:38:40.198Z,97952.19
2023-03-26T17:41:35.803Z,97954.88
2023-03-26T17:45:09.597Z,97959.47
2023-03-26T17:48:07.179Z,97954.13
2023-03-26T17:51:00.282Z,97964.84
2023-03-26T17:53:32.221Z,97971.03
2023-03-26T17:56:12.457Z,97953.88
2023-03-26T17:58:47.924Z,97951.19
2023-03-26T18:01:37.267Z,97954.69
2023-03-26T18:04:24.734Z,97957.38
2023-03-26T18:07:29.593Z,97952.53
2023-03-26T18:10:47.793Z,97959.81
2023-03-26T18:14:19.645Z,97961.69
2023-03-26T18:16:54.055Z,97965.41
2023-03-26T18:19:23.580Z,97964.06
2023-03-26T18:22:04.635Z,97960.63
2023-03-26T18:24:38.807Z,97954.16
2023-03-26T18:27:19.237Z,97953.91
2023-03-26T18:30:02.689Z,97950.44
2023-03-26T18:32:34.057Z,97953.91
2023-03-26T18:35:23.207Z,97948.56
2023-03-26T18:37:59.368Z,97947.75
2023-03-26T18:40:41.032Z,97943.72
2023-03-26T18:43:28.799Z,97951.47
2023-03-26T18:46:00.921Z,97952.81
2023-03-26T18:48:29.380Z,97949.34
2023-03-26T18:51:08.176Z,97955.22
2023-03-26T18:53:49.441Z,97953.88
2023-03-26T18:56:43.396Z,97953.56
2023-03-26T18:59:35.338Z,97947.69
2023-03-26T19:02:13.314Z,97959.72
2023-03-26T19:04:46.273Z,97951.41
2023-03-26T19:07:26.569Z,97949.25
2023-03-26T19:09:56.625Z,97950.31
2023-03-26T19:12:32.693Z,97953.00
2023-03-26T19:15:13.396Z,97936.69
2023-03-26T19:17:47.289Z,97949.78
2023-03-26T19:20:44.180Z,97946.56
2023-03-26T19:23:19.697Z,97951.38
2023-03-26T19:25:55.001Z,97958.06
2023-03-26T19:28:27.986Z,97957.78
2023-03-26T19:31:06.614Z,97958.06
2023-03-26T19:33:41.539Z,97949.50
2023-03-26T19:36:21.441Z,97955.06
2023-03-26T19:38:48.506Z,97953.47
2023-03-26T19:41:25.155Z,97951.03
2023-03-26T19:44:00.605Z,97949.19
2023-03-26T19:46:33.919Z,97955.03
2023-03-26T19:49:42.027Z,97959.31
2023-03-26T19:52:15.975Z,97959.00
2023-03-26T19:55:00.089Z,97953.34
2023-03-26T19:57:32.727Z,97955.47
2023-03-26T20:00:00.303Z,97958.09
2023-03-26T20:02:32.367Z,97953.53
2023-03-26T20:04:59.664Z,97951.16
2023-03-26T20:07:35.756Z,97954.28
2023-03-26T20:10:08.076Z,97954.22
2023-03-26T20:12:35.829Z,97955.25
2023-03-26T20:15:30.476Z,97957.38
2023-03-26T20:17:57.936Z,97954.16
2023-03-26T20:20:27.261Z,97947.22
2023-03-26T20:22:55.555Z,97954.72
2023-03-26T20:25:34.075Z,97955.19
2023-03-26T20:28:01.845Z,97956.78
2023-03-26T20:30:37.550Z,97945.00
2023-03-26T20:33:12.588Z,97932.47
2023-03-26T20:35:41.719Z,97927.91
2023-03-26T20:38:10.576Z,97927.91
2023-03-26T20:40:39.125Z,97927.88
2023-03-26T20:43:22.011Z,97920.38
2023-03-26T20:45:49.785Z,97914.50
2023-03-26T20:48:17.319Z,97915.63
2023-03-26T20:50:50.792Z,97906.53
2023-03-26T20:53:20.496Z,97894.25
2023-03-26T20:55:49.718Z,97897.97
2023-03-26T20:58:31.848Z,97894.25
2023-03-26T21:01:03.485Z,97890.50
2023-03-26T21:03:31.333Z,97874.47
2023-03-26T21:06:04.596Z,97883.06
2023-03-26T21:08:35.785Z,97877.72
2023-03-26T21:11:11.865Z,97876.09
2023-03-26T21:14:27.515Z,97879.28
2023-03-26T21:16:55.228Z,97853.66
2023-03-26T21:19:23.371Z,97853.09
2023-03-26T21:22:09.367Z,97854.16
2023-03-26T21:24:44.191Z,97856.03
2023-03-26T21:27:27.274Z,97857.63
2023-03-26T21:29:56.224Z,97858.41
2023-03-26T21:32:24.239Z,97866.41
2023-03-26T21:37:24.087Z,97865.88
2023-03-26T21:39:52.517Z,97872.81
2023-03-26T21:42:20.195Z,97872.03
2023-03-26T21:44:48.228Z,97881.34
2023-03-26T21:47:16.021Z,97878.69
2023-03-26T21:49:44.000Z,97884.53
2023-03-26T21:52:15.394Z,97888.28
2023-03-26T21:54:43.671Z,97889.88
2023-03-26T21:57:37.824Z,97888.28
2023-03-26T22:00:55.496Z,97882.13
2023-03-26T22:03:56.055Z,97867.41
2023-03-26T22:06:43.256Z,97864.22
2023-03-26T22:09:15.024Z,97862.59
2023-03-26T22:11:44.347Z,97851.91
2023-03-26T22:14:13.308Z,97850.31
2023-03-26T22:16:41.871Z,97848.69
2023-03-26T22:19:09.498Z,97849.22
2023-03-26T22:21:37.192Z,97847.63
2023-03-26T22:24:04.879Z,97838.53
2023-03-26T22:26:32.852Z,97843.31
2023-03-26T22:29:00.148Z,97839.03
2023-03-26T22:31:28.086Z,97837.44
2023-03-26T22:33:56.264Z,97840.13
2023-03-26T22:36:25.631Z,97848.63
2023-03-26T22:38:54.325Z,97831.81
2023-03-26T22:41:23.609Z,97830.44
2023-03-26T22:43:54.601Z,97826.16
2023-03-26T22:46:22.631Z,97829.38
2023-03-26T22:48:51.088Z,97829.88
2023-03-26T22:51:19.163Z,97819.72
2023-03-26T22:53:46.523Z,97814.66
2023-03-26T22:56:15.759Z,97812.78
2023-03-26T22:58:43.125Z,97801.53
2023-03-26T23:01:19.016Z,97792.38
2023-03-26T23:03:46.726Z,97788.91
2023-03-26T23:06:15.344Z,97796.94
2023-03-26T23:08:43.082Z,97788.91
2023-03-26T23:11:18.628Z,97789.47
2023-03-26T23:13:47.917Z,97781.47
2023-03-26T23:16:17.401Z,97785.97
2023-03-26T23:18:45.337Z,97781.13
2023-03-26T23:21:16.565Z,97788.59
2023-03-26T23:23:44.323Z,97784.34
2023-03-26T23:26:12.497Z,97786.78
2023-03-26T23:28:41.192Z,97791.28
2023-03-26T23:31:12.654Z,97791.03
2023-03-26T23:33:47.572Z,97787.03
2023-03-26T23:36:18.920Z,97784.38
2023-03-26T23:38:48.452Z,97774.78
2023-03-26T23:41:21.375Z,97760.91
2023-03-26T23:43:54.763Z,97768.34
2023-03-26T23:46:30.621Z,97764.06
2023-03-26T23:49:05.271Z,97761.41
2023-03-26T23:51:33.597Z,97756.59
2023-03-26T23:54:02.587Z,97752.84
2023-03-26T23:56:30.562Z,97757.34
2023-03-26T23:58:59.300Z,97761.88
